createdAt,value
2023-10-09T00:01:45.677Z,1.85
2023-10-09T00:04:12.927Z,1.98
2023-10-09T00:06:42.026Z,1.92
2023-10-09T00:09:36.431Z,1.80
2023-10-09T00:12:11.376Z,2.00
2023-10-09T00:14:40.054Z,2.40
2023-10-09T00:17:27.037Z,2.03
2023-10-09T00:19:55.966Z,1.88
2023-10-09T00:22:25.649Z,2.05
2023-10-09T00:25:12.173Z,2.00
2023-10-09T00:27:47.770Z,1.92
2023-10-09T00:30:20.315Z,2.28
2023-10-09T00:32:59.975Z,2.15
2023-10-09T00:35:45.568Z,2.07
2023-10-09T00:38:21.133Z,1.90
2023-10-09T00:40:53.998Z,2.15
2023-10-09T00:43:20.619Z,2.17
2023-10-09T00:45:48.045Z,2.00
2023-10-09T00:48:31.009Z,2.00
2023-10-09T00:51:01.399Z,2.15
2023-10-09T00:53:37.785Z,2.00
2023-10-09T00:56:29.886Z,1.80
2023-10-09T00:59:08.197Z,1.73
2023-10-09T01:01:37.912Z,1.95
2023-10-09T01:04:11.615Z,1.90
2023-10-09T01:06:46.703Z,1.83
2023-10-09T01:09:21.621Z,2.03
2023-10-09T01:12:03.341Z,2.13
2023-10-09T01:14:37.643Z,1.70
2023-10-09T01:17:19.882Z,1.98
2023-10-09T01:19:48.400Z,1.95
2023-10-09T01:22:16.029Z,1.65
2023-10-09T01:24:43.191Z,1.92
2023-10-09T01:27:16.999Z,2.25
2023-10-09T01:29:45.447Z,1.88
2023-10-09T01:32:17.953Z,1.80
2023-10-09T01:34:47.260Z,1.83
2023-10-09T01:37:30.157Z,1.60
2023-10-09T01:40:18.720Z,1.80
2023-10-09T01:42:48.294Z,1.92
2023-10-09T01:45:21.309Z,1.90
2023-10-09T01:47:55.001Z,1.70
2023-10-09T01:50:28.494Z,2.03
2023-10-09T01:52:55.252Z,1.63
2023-10-09T01:55:35.937Z,2.00
2023-10-09T01:58:31.258Z,2.00
2023-10-09T02:00:58.366Z,2.10
2023-10-09T02:03:25.975Z,2.00
2023-10-09T02:05:54.879Z,1.80
2023-10-09T02:08:36.768Z,2.15
2023-10-09T02:11:04.064Z,1.88
2023-10-09T02:13:31.181Z,1.90
2023-10-09T02:16:14.547Z,2.00
2023-10-09T02:18:53.395Z,1.83
2023-10-09T02:21:32.873Z,2.03
2023-10-09T02:24:04.112Z,1.90
2023-10-09T02:26:39.251Z,1.88
2023-10-09T02:29:16.188Z,2.35
2023-10-09T02:31:47.657Z,2.10
2023-10-09T02:34:16.983Z,2.38
2023-10-09T02:36:44.945Z,2.00
2023-10-09T02:39:30.522Z,1.90
2023-10-09T02:42:24.016Z,1.77
2023-10-09T02:44:52.642Z,2.10
2023-10-09T02:47:30.925Z,1.98
2023-10-09T02:50:20.942Z,1.92
2023-10-09T02:52:53.945Z,1.90
2023-10-09T02:55:28.706Z,2.00
2023-10-09T02:58:11.812Z,2.10
2023-10-09T03:00:38.553Z,2.10
2023-10-09T03:03:08.525Z,2.00
2023-10-09T03:05:37.805Z,2.00
2023-10-09T03:08:04.548Z,1.90
2023-10-09T03:10:31.136Z,2.55
2023-10-09T03:13:01.207Z,1.90
2023-10-09T03:15:30.380Z,2.10
2023-10-09T03:17:57.255Z,1.90
2023-10-09T03:20:23.967Z,2.13
2023-10-09T03:22:51.068Z,3.35
2023-10-09T03:25:18.452Z,2.95
2023-10-09T03:27:48.293Z,2.97
2023-10-09T03:30:24.756Z,3.00
2023-10-09T03:32:55.876Z,2.75
2023-10-09T03:35:27.339Z,2.65
2023-10-09T03:38:02.125Z,3.42
2023-10-09T03:40:29.248Z,3.17
2023-10-09T03:42:55.853Z,3.30
2023-10-09T03:45:26.456Z,2.80
2023-10-09T03:48:10.270Z,2.22
2023-10-09T03:50:37.499Z,2.20
2023-10-09T03:53:08.239Z,2.10
2023-10-09T03:58:07.655Z,2.60
2023-10-09T04:00:42.404Z,2.30
2023-10-09T04:03:12.990Z,2.17
2023-10-09T04:08:29.696Z,2.23
2023-10-09T04:11:02.666Z,2.35
2023-10-09T04:13:35.728Z,2.20
2023-10-09T04:16:12.638Z,2.08
2023-10-09T04:18:41.056Z,2.15
2023-10-09T04:21:20.845Z,2.17
2023-10-09T04:24:06.698Z,2.10
2023-10-09T04:26:36.098Z,2.03
2023-10-09T04:29:03.553Z,2.15
2023-10-09T04:31:33.781Z,2.28
2023-10-09T04:34:19.180Z,2.40
2023-10-09T04:36:50.650Z,2.10
2023-10-09T04:39:36.870Z,2.40
2023-10-09T04:42:22.176Z,2.40
2023-10-09T04:45:14.864Z,2.50
2023-10-09T04:47:50.649Z,2.05
2023-10-09T04:50:32.886Z,2.15
2023-10-09T04:53:19.487Z,2.33
2023-10-09T04:55:55.415Z,2.25
2023-10-09T04:58:26.925Z,2.50
2023-10-09T05:00:58.759Z,2.08
2023-10-09T05:03:30.778Z,2.15
2023-10-09T05:06:00.646Z,2.38
2023-10-09T05:08:28.202Z,2.15
2023-10-09T05:10:57.148Z,2.10
2023-10-09T05:13:43.744Z,2.30
2023-10-09T05:16:26.739Z,2.00
2023-10-09T05:18:58.910Z,2.20
2023-10-09T05:21:43.163Z,2.10
2023-10-09T05:24:13.557Z,2.47
2023-10-09T05:29:33.452Z,1.83
2023-10-09T05:32:13.633Z,2.08
2023-10-09T05:34:59.987Z,2.08
2023-10-09T05:37:36.201Z,2.20
2023-10-09T05:40:19.495Z,2.10
2023-10-09T05:42:58.771Z,2.45
2023-10-09T05:45:45.859Z,1.95
2023-10-09T05:48:15.578Z,2.20
2023-10-09T05:50:57.343Z,1.92
2023-10-09T05:53:56.247Z,2.10
2023-10-09T05:56:41.753Z,2.35
2023-10-09T05:59:26.767Z,2.30
2023-10-09T06:02:08.439Z,2.00
2023-10-09T06:04:50.836Z,2.10
2023-10-09T06:07:24.524Z,2.13
2023-10-09T06:09:56.781Z,2.20
2023-10-09T06:12:33.988Z,1.83
2023-10-09T06:15:32.407Z,1.98
2023-10-09T06:18:19.145Z,2.30
2023-10-09T06:21:09.270Z,2.30
2023-10-09T06:23:54.303Z,2.25
2023-10-09T06:26:27.360Z,2.17
2023-10-09T06:29:13.920Z,2.00
2023-10-09T06:31:59.204Z,2.00
2023-10-09T06:34:36.777Z,2.38
2023-10-09T06:37:29.373Z,2.15
2023-10-09T06:39:57.828Z,2.35
2023-10-09T06:42:34.763Z,1.92
2023-10-09T06:45:07.011Z,2.25
2023-10-09T06:47:43.014Z,2.28
2023-10-09T06:50:22.028Z,2.25
2023-10-09T06:52:58.696Z,2.17
2023-10-09T06:55:36.041Z,2.00
2023-10-09T06:58:10.929Z,2.22
2023-10-09T07:01:02.234Z,2.58
2023-10-09T07:03:37.832Z,2.40
2023-10-09T07:06:25.106Z,2.00
2023-10-09T07:09:08.077Z,2.20
2023-10-09T07:11:53.495Z,2.50
2023-10-09T07:14:41.203Z,2.40
2023-10-09T07:17:44.480Z,1.98
2023-10-09T07:20:16.196Z,2.13
2023-10-09T07:23:14.815Z,2.38
2023-10-09T07:25:43.338Z,2.15
2023-10-09T07:28:41.341Z,2.13
2023-10-09T07:31:10.698Z,2.15
2023-10-09T07:33:56.465Z,2.30
2023-10-09T07:36:39.500Z,2.90
2023-10-09T07:39:14.676Z,2.13
2023-10-09T07:42:03.085Z,2.58
2023-10-09T07:44:38.101Z,2.70
2023-10-09T07:47:24.229Z,2.50
2023-10-09T07:49:55.045Z,2.55
2023-10-09T07:52:24.991Z,2.95
2023-10-09T07:54:54.522Z,2.85
2023-10-09T07:57:28.021Z,2.70
2023-10-09T08:00:02.338Z,2.55
2023-10-09T08:02:35.566Z,2.92
2023-10-09T08:05:08.003Z,2.65
2023-10-09T08:08:08.005Z,2.92
2023-10-09T08:10:24.343Z,2.50
2023-10-09T08:12:51.098Z,3.10
2023-10-09T08:15:22.726Z,3.25
2023-10-09T08:17:55.387Z,2.70
2023-10-09T08:20:52.024Z,2.55
2023-10-09T08:23:30.960Z,2.60
2023-10-09T08:26:16.494Z,3.08
2023-10-09T08:28:44.488Z,3.03
2023-10-09T08:31:31.886Z,2.65
2023-10-09T08:36:33.383Z,2.88
2023-10-09T08:39:02.503Z,2.92
2023-10-09T08:41:31.337Z,2.42
2023-10-09T08:43:58.963Z,2.92
2023-10-09T08:46:30.655Z,2.80
2023-10-09T08:49:00.104Z,2.75
2023-10-09T08:51:28.841Z,2.93
2023-10-09T08:53:56.546Z,2.65
2023-10-09T08:56:24.457Z,3.15
2023-10-09T08:58:54.261Z,3.10
2023-10-09T09:01:23.036Z,2.17
2023-10-09T09:03:51.639Z,2.55
2023-10-09T09:06:21.630Z,2.45
2023-10-09T09:08:48.682Z,2.58
2023-10-09T09:11:23.657Z,3.00
2023-10-09T09:14:06.126Z,2.50
2023-10-09T09:16:37.867Z,2.80
2023-10-09T09:19:11.804Z,2.63
2023-10-09T09:21:42.152Z,3.53
2023-10-09T09:26:46.642Z,2.33
2023-10-09T09:29:21.212Z,2.60
2023-10-09T09:31:56.084Z,2.72
2023-10-09T09:34:27.173Z,2.53
2023-10-09T09:36:58.115Z,2.42
2023-10-09T09:39:41.862Z,2.78
2023-10-09T09:42:16.553Z,2.50
2023-10-09T09:44:44.753Z,2.60
2023-10-09T09:47:25.029Z,2.42
2023-10-09T09:50:02.186Z,2.22
2023-10-09T09:52:41.645Z,2.30
2023-10-09T09:55:15.692Z,2.33
2023-10-09T09:57:46.516Z,2.63
2023-10-09T10:00:28.730Z,2.40
2023-10-09T10:02:59.818Z,2.30
2023-10-09T10:05:31.127Z,2.53
2023-10-09T10:08:00.429Z,2.35
2023-10-09T10:10:59.531Z,2.60
2023-10-09T10:13:59.928Z,2.55
2023-10-09T10:16:35.669Z,2.50
2023-10-09T10:19:19.494Z,2.22
2023-10-09T10:21:50.699Z,2.40
2023-10-09T10:24:32.177Z,2.28
2023-10-09T10:27:10.835Z,2.60
2023-10-09T10:29:39.754Z,2.47
2023-10-09T10:32:09.871Z,2.10
2023-10-09T10:34:58.632Z,2.45
2023-10-09T10:38:23.587Z,2.90
2023-10-09T10:40:58.364Z,2.60
2023-10-09T10:43:48.991Z,2.80
2023-10-09T10:46:16.742Z,2.42
2023-10-09T10:48:48.461Z,2.58
2023-10-09T10:51:25.297Z,2.63
2023-10-09T10:53:59.149Z,2.58
2023-10-09T10:56:36.850Z,2.60
2023-10-09T10:59:06.598Z,2.70
2023-10-09T11:01:53.307Z,2.45
2023-10-09T11:04:30.924Z,2.70
2023-10-09T11:07:04.766Z,2.50
2023-10-09T11:10:06.278Z,2.25
2023-10-09T11:12:46.053Z,2.65
2023-10-09T11:15:23.241Z,2.90
2023-10-09T11:18:10.420Z,2.75
2023-10-09T11:20:39.496Z,2.20
2023-10-09T11:23:13.279Z,2.40
2023-10-09T11:25:51.945Z,2.40
2023-10-09T11:28:43.833Z,2.25
2023-10-09T11:31:17.231Z,2.17
2023-10-09T11:33:52.723Z,2.65
2023-10-09T11:36:33.902Z,2.28
2023-10-09T11:39:14.981Z,2.33
2023-10-09T11:41:45.459Z,2.40
2023-10-09T11:44:25.065Z,2.58
2023-10-09T11:47:19.642Z,2.00
2023-10-09T11:50:03.072Z,2.58
2023-10-09T11:52:39.686Z,2.53
2023-10-09T11:55:17.722Z,2.60
2023-10-09T11:57:44.377Z,2.10
2023-10-09T12:00:31.780Z,2.28
2023-10-09T12:03:06.300Z,2.53
2023-10-09T12:05:34.962Z,2.50
2023-10-09T12:08:02.962Z,2.70
2023-10-09T12:10:31.049Z,2.50
2023-10-09T12:13:00.931Z,2.65
2023-10-09T12:20:35.955Z,2.40
2023-10-09T12:23:07.499Z,2.42
2023-10-09T12:25:36.374Z,2.50
2023-10-09T12:28:04.265Z,2.67
2023-10-09T12:30:31.478Z,2.50
2023-10-09T12:32:59.479Z,2.15
2023-10-09T12:35:26.580Z,2.70
2023-10-09T12:37:57.493Z,2.15
2023-10-09T12:40:30.514Z,2.38
2023-10-09T12:43:00.243Z,2.33
2023-10-09T12:48:00.520Z,2.60
2023-10-09T12:50:30.227Z,2.13
2023-10-09T12:53:03.741Z,2.58
2023-10-09T12:55:33.281Z,1.90
2023-10-09T13:00:38.429Z,2.33
2023-10-09T13:03:21.107Z,2.38
2023-10-09T13:05:58.310Z,2.30
2023-10-09T13:08:41.083Z,2.22
2023-10-09T13:11:12.168Z,2.22
2023-10-09T13:13:48.670Z,2.13
2023-10-09T13:16:27.192Z,2.10
2023-10-09T13:18:57.867Z,2.33
2023-10-09T13:21:28.285Z,2.10
2023-10-09T13:23:58.776Z,2.17
2023-10-09T13:26:34.452Z,2.10
2023-10-09T13:29:03.923Z,2.47
2023-10-09T13:31:35.300Z,2.38
2023-10-09T13:34:04.424Z,2.20
2023-10-09T13:36:35.435Z,2.20
2023-10-09T13:39:24.332Z,2.33
2023-10-09T13:42:01.203Z,2.05
2023-10-09T13:44:29.158Z,2.03
2023-10-09T13:47:00.575Z,2.17
2023-10-09T13:49:33.308Z,1.80
2023-10-09T13:52:07.808Z,1.90
2023-10-09T13:54:34.592Z,1.92
2023-10-09T13:57:05.084Z,2.10
2023-10-09T13:59:32.913Z,1.73
2023-10-09T14:02:00.781Z,1.90
2023-10-09T14:04:27.641Z,2.08
2023-10-09T14:07:00.807Z,2.00
2023-10-09T14:09:56.351Z,2.10
2023-10-09T14:12:23.427Z,1.95
2023-10-09T14:14:50.483Z,2.00
2023-10-09T14:17:26.469Z,2.40
2023-10-09T14:19:54.997Z,1.83
2023-10-09T14:22:27.752Z,2.08
2023-10-09T14:24:59.089Z,2.15
2023-10-09T14:27:28.375Z,2.00
2023-10-09T14:29:58.052Z,1.95
2023-10-09T14:35:02.302Z,2.10
2023-10-09T14:37:29.483Z,1.80
2023-10-09T14:40:00.009Z,2.20
2023-10-09T14:42:29.243Z,1.80
2023-10-09T14:44:56.932Z,1.92
2023-10-09T14:47:24.034Z,2.35
2023-10-09T14:49:50.994Z,2.10
2023-10-09T14:52:18.123Z,2.05
2023-10-09T14:54:48.027Z,2.13
2023-10-09T14:57:15.740Z,2.10
2023-10-09T14:59:44.489Z,1.95
2023-10-09T15:02:13.736Z,1.90
2023-10-09T15:04:41.119Z,1.90
2023-10-09T15:07:08.246Z,2.40
2023-10-09T15:09:37.587Z,1.73
2023-10-09T15:14:35.070Z,2.10
2023-10-09T15:17:03.503Z,2.10
2023-10-09T15:19:33.241Z,1.70
2023-10-09T15:22:00.665Z,1.80
2023-10-09T15:24:29.050Z,1.80
2023-10-09T15:27:01.055Z,1.95
2023-10-09T15:29:29.753Z,2.08
2023-10-09T15:31:57.246Z,1.90
2023-10-09T15:34:25.845Z,1.67
2023-10-09T15:36:54.676Z,1.80
2023-10-09T15:39:21.659Z,1.50
2023-10-09T15:41:48.466Z,1.85
2023-10-09T15:44:15.389Z,2.00
2023-10-09T15:46:44.724Z,1.90
2023-10-09T15:49:14.330Z,1.90
2023-10-09T15:51:41.482Z,2.20
2023-10-09T15:54:11.938Z,1.92
2023-10-09T15:56:46.094Z,1.80
2023-10-09T15:59:17.955Z,1.95
2023-10-09T16:01:45.209Z,1.77
2023-10-09T16:04:12.223Z,1.75
2023-10-09T16:06:42.617Z,2.10
2023-10-09T16:09:12.913Z,1.77
2023-10-09T16:11:40.902Z,1.70
2023-10-09T16:14:10.819Z,2.00
2023-10-09T16:19:13.346Z,2.22
2023-10-09T16:21:40.434Z,1.73
2023-10-09T16:24:10.200Z,1.75
2023-10-09T16:26:46.623Z,1.83
2023-10-09T16:29:13.589Z,1.80
2023-10-09T16:31:42.033Z,1.88
2023-10-09T16:34:09.447Z,1.73
2023-10-09T16:36:36.847Z,1.70
2023-10-09T16:39:04.636Z,2.00
2023-10-09T16:41:36.015Z,1.75
2023-10-09T16:44:06.244Z,1.80
2023-10-09T16:46:33.183Z,1.80
2023-10-09T16:49:05.572Z,1.90
2023-10-09T16:51:32.302Z,1.70
2023-10-09T16:54:00.176Z,2.17
2023-10-09T16:56:33.473Z,1.88
2023-10-09T16:59:01.718Z,2.08
2023-10-09T17:01:29.067Z,1.73
2023-10-09T17:03:59.099Z,1.55
2023-10-09T17:06:30.164Z,1.85
2023-10-09T17:08:58.205Z,2.25
2023-10-09T17:11:25.975Z,2.30
2023-10-09T17:13:55.819Z,2.10
2023-10-09T17:16:25.290Z,1.77
2023-10-09T17:18:56.991Z,1.80
2023-10-09T17:21:25.077Z,2.13
2023-10-09T17:23:55.087Z,2.33
2023-10-09T17:26:25.064Z,2.20
2023-10-09T17:28:53.415Z,2.30
2023-10-09T17:31:27.396Z,2.35
2023-10-09T17:33:57.187Z,2.75
2023-10-09T17:36:24.226Z,2.72
2023-10-09T17:38:51.293Z,2.30
2023-10-09T17:41:22.966Z,2.38
2023-10-09T17:43:51.806Z,2.45
2023-10-09T17:46:19.284Z,3.28
2023-10-09T17:48:46.549Z,2.70
2023-10-09T17:51:13.331Z,3.53
2023-10-09T17:53:40.845Z,2.88
2023-10-09T17:56:09.577Z,3.30
2023-10-09T17:58:36.424Z,3.10
2023-10-09T18:01:07.605Z,3.58
2023-10-09T18:03:34.829Z,3.60
2023-10-09T18:06:01.639Z,3.47
2023-10-09T18:08:28.347Z,3.50
2023-10-09T18:11:01.502Z,3.60
2023-10-09T18:13:28.487Z,3.20
2023-10-09T18:16:09.828Z,3.25
2023-10-09T18:18:37.643Z,3.33
2023-10-09T18:21:09.108Z,3.00
2023-10-09T18:23:37.538Z,3.45
2023-10-09T18:26:07.133Z,3.13
2023-10-09T18:28:37.919Z,3.22
2023-10-09T18:31:11.322Z,2.92
2023-10-09T18:33:37.950Z,2.90
2023-10-09T18:36:08.692Z,2.80
2023-10-09T18:38:35.448Z,2.60
2023-10-09T18:41:06.796Z,2.78
2023-10-09T18:43:33.516Z,3.15
2023-10-09T18:46:04.609Z,3.22
2023-10-09T18:48:31.207Z,3.00
2023-10-09T18:51:00.940Z,3.38
2023-10-09T18:53:30.811Z,3.13
2023-10-09T18:55:57.518Z,3.53
2023-10-09T18:58:24.332Z,3.60
2023-10-09T19:00:52.871Z,3.38
2023-10-09T19:03:21.987Z,3.40
2023-10-09T19:05:48.847Z,3.70
2023-10-09T19:08:19.419Z,3.25
2023-10-09T19:10:47.445Z,3.22
2023-10-09T19:13:15.013Z,3.00
2023-10-09T19:15:44.433Z,3.25
2023-10-09T19:18:14.054Z,3.33
2023-10-09T19:20:42.270Z,3.40
2023-10-09T19:23:10.137Z,3.30
2023-10-09T19:25:37.991Z,3.40
2023-10-09T19:28:05.599Z,2.78
2023-10-09T19:30:32.611Z,2.80
2023-10-09T19:33:00.888Z,3.03
2023-10-09T19:35:29.244Z,2.88
2023-10-09T19:37:56.044Z,2.78
2023-10-09T19:40:22.988Z,3.40
2023-10-09T19:42:49.678Z,3.33
2023-10-09T19:45:20.797Z,3.20
2023-10-09T19:47:50.607Z,3.35
2023-10-09T19:50:17.495Z,2.95
2023-10-09T19:52:55.037Z,3.55
2023-10-09T19:55:22.925Z,3.22
2023-10-09T19:57:52.522Z,3.25
2023-10-09T20:00:23.137Z,3.38
2023-10-09T20:02:54.882Z,3.15
2023-10-09T20:05:24.225Z,3.55
2023-10-09T20:07:51.109Z,3.00
2023-10-09T20:10:19.716Z,3.33
2023-10-09T20:12:46.827Z,3.13
2023-10-09T20:15:16.389Z,2.97
2023-10-09T20:17:46.044Z,3.07
2023-10-09T20:20:13.310Z,2.97
2023-10-09T20:22:40.775Z,3.45
2023-10-09T20:25:18.390Z,3.05
2023-10-09T20:27:45.054Z,3.40
2023-10-09T20:30:15.965Z,3.00
2023-10-09T20:32:43.162Z,2.90
2023-10-09T20:35:13.570Z,3.97
2023-10-09T20:40:19.467Z,3.30
2023-10-09T20:42:48.619Z,3.38
2023-10-09T20:45:16.169Z,3.13
2023-10-09T20:47:56.191Z,3.17
2023-10-09T20:50:23.613Z,3.00
2023-10-09T20:52:50.811Z,3.05
2023-10-09T20:55:22.716Z,2.60
2023-10-09T20:57:50.417Z,2.95
2023-10-09T21:00:21.139Z,2.88
2023-10-09T21:02:49.347Z,2.28
2023-10-09T21:05:20.338Z,2.30
2023-10-09T21:07:48.492Z,2.33
2023-10-09T21:10:18.696Z,2.05
2023-10-09T21:12:52.926Z,2.20
2023-10-09T21:15:21.979Z,2.00
2023-10-09T21:17:53.367Z,2.40
2023-10-09T21:20:20.593Z,2.30
2023-10-09T21:22:55.318Z,2.20
2023-10-09T21:25:23.516Z,2.58
2023-10-09T21:27:50.665Z,2.05
2023-10-09T21:30:17.418Z,2.45
2023-10-09T21:32:45.057Z,2.22
2023-10-09T21:35:17.619Z,2.40
2023-10-09T21:37:51.400Z,2.50
2023-10-09T21:40:24.559Z,2.00
2023-10-09T21:42:54.367Z,2.13
2023-10-09T21:45:22.590Z,2.07
2023-10-09T21:47:56.431Z,2.25
2023-10-09T21:50:27.544Z,2.03
2023-10-09T21:52:59.034Z,1.88
2023-10-09T21:55:29.393Z,1.98
2023-10-09T21:57:56.471Z,1.80
2023-10-09T22:00:32.410Z,2.15
2023-10-09T22:03:02.545Z,1.98
2023-10-09T22:05:32.220Z,2.20
2023-10-09T22:07:58.968Z,2.03
2023-10-09T22:10:25.589Z,2.30
2023-10-09T22:12:52.324Z,1.77
2023-10-09T22:15:19.608Z,2.22
2023-10-09T22:17:47.614Z,2.10
2023-10-09T22:20:19.487Z,2.10
2023-10-09T22:22:50.554Z,1.83
2023-10-09T22:25:17.825Z,1.88
2023-10-09T22:27:52.573Z,1.90
2023-10-09T22:30:30.501Z,1.90
2023-10-09T22:33:04.038Z,2.47
2023-10-09T22:35:34.991Z,2.08
2023-10-09T22:38:09.198Z,2.17
2023-10-09T22:40:40.270Z,2.38
2023-10-09T22:43:12.268Z,1.90
2023-10-09T22:45:50.299Z,2.00
2023-10-09T22:48:18.219Z,2.00
2023-10-09T22:50:46.737Z,2.13
2023-10-09T22:53:23.235Z,2.05
2023-10-09T22:55:54.490Z,2.20
2023-10-09T22:58:29.247Z,2.00
2023-10-09T23:00:59.914Z,2.10
2023-10-09T23:03:27.708Z,1.88
2023-10-09T23:06:02.130Z,2.22
2023-10-09T23:08:32.472Z,2.25
2023-10-09T23:11:11.291Z,2.30
2023-10-09T23:13:53.235Z,2.13
2023-10-09T23:16:46.756Z,2.25
2023-10-09T23:19:32.124Z,2.22
2023-10-09T23:22:09.445Z,2.08
2023-10-09T23:24:52.802Z,2.13
2023-10-09T23:27:39.041Z,2.17
2023-10-09T23:30:17.154Z,2.05
2023-10-09T23:32:50.154Z,2.30
2023-10-09T23:35:21.331Z,2.40
2023-10-09T23:38:07.876Z,2.28
2023-10-09T23:40:45.126Z,2.20
2023-10-09T23:43:17.809Z,2.17
2023-10-09T23:45:45.267Z,1.98
2023-10-09T23:48:15.898Z,2.33
2023-10-09T23:50:45.442Z,2.28
2023-10-09T23:53:16.015Z,2.53
2023-10-09T23:58:17.632Z,2.40
